sensor_id;sensor_type;location;lat;lon;timestamp;pressure;altitude;pressure_sealevel;temperature;humidity
4167;BME280;2097;51.104;7.150;2023-04-10T00:00:44;99471.88;;;5.91;72.57
4167;BME280;2097;51.104;7.150;2023-04-10T00:03:12;99470.97;;;5.92;73.23
4167;BME280;2097;51.104;7.150;2023-04-10T00:05:39;99465.81;;;5.94;73.02
4167;BME280;2097;51.104;7.150;2023-04-10T00:08:05;99463.97;;;5.97;72.59
4167;BME280;2097;51.104;7.150;2023-04-10T00:10:32;99464.72;;;6.01;72.73
4167;BME280;2097;51.104;7.150;2023-04-10T00:13:00;99466.41;;;6.02;72.96
4167;BME280;2097;51.104;7.150;2023-04-10T00:15:29;99450.88;;;6.05;72.32
4167;BME280;2097;51.104;7.150;2023-04-10T00:17:56;99451.56;;;6.10;73.60
4167;BME280;2097;51.104;7.150;2023-04-10T00:20:22;99449.88;;;6.09;72.95
4167;BME280;2097;51.104;7.150;2023-04-10T00:22:50;99407.78;;;5.82;73.27
4167;BME280;2097;51.104;7.150;2023-04-10T00:25:17;99444.78;;;6.07;73.41
4167;BME280;2097;51.104;7.150;2023-04-10T00:27:44;99444.72;;;6.10;72.71
4167;BME280;2097;51.104;7.150;2023-04-10T00:30:12;99445.59;;;6.09;73.80
4167;BME280;2097;51.104;7.150;2023-04-10T00:32:40;99443.84;;;6.10;73.84
4167;BME280;2097;51.104;7.150;2023-04-10T00:35:08;99442.22;;;6.07;73.74
4167;BME280;2097;51.104;7.150;2023-04-10T00:37:35;99443.94;;;6.07;73.79
4167;BME280;2097;51.104;7.150;2023-04-10T00:40:02;99441.31;;;6.08;73.69
4167;BME280;2097;51.104;7.150;2023-04-10T00:42:28;99440.44;;;6.09;73.24
4167;BME280;2097;51.104;7.150;2023-04-10T00:44:56;99430.13;;;6.09;73.86
4167;BME280;2097;51.104;7.150;2023-04-10T00:47:24;99428.47;;;6.07;74.69
4167;BME280;2097;51.104;7.150;2023-04-10T00:49:52;99425.97;;;6.05;74.25
4167;BME280;2097;51.104;7.150;2023-04-10T00:52:19;99427.75;;;6.03;74.38
4167;BME280;2097;51.104;7.150;2023-04-10T00:54:46;99426.94;;;6.01;74.57
4167;BME280;2097;51.104;7.150;2023-04-10T00:57:13;99411.53;;;6.00;73.97
4167;BME280;2097;51.104;7.150;2023-04-10T00:59:40;99421.06;;;5.96;74.48
4167;BME280;2097;51.104;7.150;2023-04-10T01:02:07;99421.13;;;5.95;75.20
4167;BME280;2097;51.104;7.150;2023-04-10T01:04:37;99415.13;;;5.94;75.15
4167;BME280;2097;51.104;7.150;2023-04-10T01:07:10;99392.97;;;5.89;74.99
4167;BME280;2097;51.104;7.150;2023-04-10T01:09:47;99416.88;;;5.94;75.20
4167;BME280;2097;51.104;7.150;2023-04-10T01:12:36;99409.25;;;5.89;74.81
4167;BME280;2097;51.104;7.150;2023-04-10T01:15:10;99410.19;;;5.87;75.03
4167;BME280;2097;51.104;7.150;2023-04-10T01:17:42;99406.03;;;5.83;75.67
4167;BME280;2097;51.104;7.150;2023-04-10T01:20:16;99405.97;;;5.84;75.63
4167;BME280;2097;51.104;7.150;2023-04-10T01:23:05;99395.03;;;5.76;75.30
4167;BME280;2097;51.104;7.150;2023-04-10T01:25:40;99408.75;;;5.77;76.09
4167;BME280;2097;51.104;7.150;2023-04-10T01:28:23;99402.88;;;5.72;76.07
4167;BME280;2097;51.104;7.150;2023-04-10T01:30:59;99402.13;;;5.68;75.55
4167;BME280;2097;51.104;7.150;2023-04-10T01:33:32;99398.78;;;5.65;76.78
4167;BME280;2097;51.104;7.150;2023-04-10T01:36:02;99390.22;;;5.64;75.96
4167;BME280;2097;51.104;7.150;2023-04-10T01:38:32;99380.00;;;5.63;75.70
4167;BME280;2097;51.104;7.150;2023-04-10T01:41:00;99383.22;;;5.69;76.17
4167;BME280;2097;51.104;7.150;2023-04-10T01:43:28;99377.84;;;5.77;76.22
4167;BME280;2097;51.104;7.150;2023-04-10T01:45:57;99373.28;;;5.86;75.99
4167;BME280;2097;51.104;7.150;2023-04-10T01:48:25;99370.63;;;5.89;75.84
4167;BME280;2097;51.104;7.150;2023-04-10T01:50:54;99367.88;;;5.95;75.71
4167;BME280;2097;51.104;7.150;2023-04-10T01:53:22;99372.13;;;5.96;75.86
4167;BME280;2097;51.104;7.150;2023-04-10T01:55:49;99359.25;;;5.96;75.70
4167;BME280;2097;51.104;7.150;2023-04-10T01:58:18;99364.25;;;6.01;75.73
4167;BME280;2097;51.104;7.150;2023-04-10T02:00:45;99360.84;;;6.00;76.20
4167;BME280;2097;51.104;7.150;2023-04-10T02:03:13;99355.78;;;5.97;75.75
4167;BME280;2097;51.104;7.150;2023-04-10T02:05:47;99359.16;;;5.99;75.90
4167;BME280;2097;51.104;7.150;2023-04-10T02:08:22;99355.69;;;6.00;75.66
4167;BME280;2097;51.104;7.150;2023-04-10T02:10:55;99354.00;;;5.99;76.36
4167;BME280;2097;51.104;7.150;2023-04-10T02:13:25;99246.81;;;5.41;75.54
4167;BME280;2097;51.104;7.150;2023-04-10T02:15:55;99350.22;;;6.11;74.94
4167;BME280;2097;51.104;7.150;2023-04-10T02:18:27;99346.72;;;6.13;75.34
4167;BME280;2097;51.104;7.150;2023-04-10T02:20:56;99341.34;;;6.19;76.01
4167;BME280;2097;51.104;7.150;2023-04-10T02:23:22;99342.09;;;6.23;76.16
4167;BME280;2097;51.104;7.150;2023-04-10T02:25:49;99341.16;;;6.25;75.33
4167;BME280;2097;51.104;7.150;2023-04-10T02:28:16;99335.19;;;6.23;75.08
4167;BME280;2097;51.104;7.150;2023-04-10T02:30:43;99342.13;;;6.21;75.24
4167;BME280;2097;51.104;7.150;2023-04-10T02:33:10;99339.63;;;6.20;75.17
4167;BME280;2097;51.104;7.150;2023-04-10T02:35:38;99334.47;;;6.20;76.00
4167;BME280;2097;51.104;7.150;2023-04-10T02:38:05;99339.63;;;6.20;75.17
4167;BME280;2097;51.104;7.150;2023-04-10T02:40:32;99341.47;;;6.16;75.67
4167;BME280;2097;51.104;7.150;2023-04-10T02:42:59;99343.19;;;6.16;75.74
4167;BME280;2097;51.104;7.150;2023-04-10T02:45:26;99341.56;;;6.13;76.38
4167;BME280;2097;51.104;7.150;2023-04-10T02:47:53;99338.28;;;6.08;75.88
4167;BME280;2097;51.104;7.150;2023-04-10T02:50:20;99340.16;;;6.03;76.77
4167;BME280;2097;51.104;7.150;2023-04-10T02:52:48;99336.78;;;6.01;76.62
4167;BME280;2097;51.104;7.150;2023-04-10T02:55:15;99338.47;;;6.02;76.04
4167;BME280;2097;51.104;7.150;2023-04-10T02:57:42;99337.59;;;6.02;76.44
4167;BME280;2097;51.104;7.150;2023-04-10T03:00:10;99335.91;;;6.01;76.98
4167;BME280;2097;51.104;7.150;2023-04-10T03:02:37;99331.63;;;6.01;76.15
4167;BME280;2097;51.104;7.150;2023-04-10T03:05:04;99336.03;;;5.98;75.96
4167;BME280;2097;51.104;7.150;2023-04-10T03:07:33;99332.66;;;5.96;77.06
4167;BME280;2097;51.104;7.150;2023-04-10T03:10:01;99324.22;;;5.91;76.44
4167;BME280;2097;51.104;7.150;2023-04-10T03:12:28;99325.25;;;5.85;76.55
4167;BME280;2097;51.104;7.150;2023-04-10T03:14:54;99325.47;;;5.79;77.08
4167;BME280;2097;51.104;7.150;2023-04-10T03:17:21;99319.44;;;5.79;76.63
4167;BME280;2097;51.104;7.150;2023-04-10T03:19:48;99321.94;;;5.82;76.71
4167;BME280;2097;51.104;7.150;2023-04-10T03:22:15;99321.88;;;5.83;76.91
4167;BME280;2097;51.104;7.150;2023-04-10T03:24:42;99315.84;;;5.84;76.24
4167;BME280;2097;51.104;7.150;2023-04-10T03:27:10;99310.69;;;5.84;76.96
4167;BME280;2097;51.104;7.150;2023-04-10T03:29:37;99316.72;;;5.83;76.47
4167;BME280;2097;51.104;7.150;2023-04-10T03:32:04;99304.63;;;5.85;77.21
4167;BME280;2097;51.104;7.150;2023-04-10T03:34:30;99302.97;;;5.84;77.22
4167;BME280;2097;51.104;7.150;2023-04-10T03:36:57;99298.81;;;5.80;76.91
4167;BME280;2097;51.104;7.150;2023-04-10T03:39:24;99293.66;;;5.80;77.76
4167;BME280;2097;51.104;7.150;2023-04-10T03:41:51;99291.75;;;5.85;77.36
4167;BME280;2097;51.104;7.150;2023-04-10T03:44:19;99282.25;;;5.87;77.17
4167;BME280;2097;51.104;7.150;2023-04-10T03:46:46;99280.38;;;5.92;76.88
4167;BME280;2097;51.104;7.150;2023-04-10T03:49:13;99278.59;;;5.94;75.92
4167;BME280;2097;51.104;7.150;2023-04-10T03:51:40;99273.38;;;5.97;77.25
4167;BME280;2097;51.104;7.150;2023-04-10T03:54:07;99283.56;;;6.00;76.83
4167;BME280;2097;51.104;7.150;2023-04-10T03:56:34;99278.47;;;5.99;77.33
4167;BME280;2097;51.104;7.150;2023-04-10T03:59:00;99275.06;;;5.98;76.70
4167;BME280;2097;51.104;7.150;2023-04-10T04:01:29;99274.09;;;6.01;76.06
4167;BME280;2097;51.104;7.150;2023-04-10T04:03:57;99270.63;;;6.02;76.41
4167;BME280;2097;51.104;7.150;2023-04-10T04:06:24;99263.03;;;5.99;76.68
4167;BME280;2097;51.104;7.150;2023-04-10T04:08:51;99265.78;;;5.93;77.40
4167;BME280;2097;51.104;7.150;2023-04-10T04:11:18;99261.56;;;5.90;77.26
4167;BME280;2097;51.104;7.150;2023-04-10T04:13:45;99259.97;;;5.86;77.12
4167;BME280;2097;51.104;7.150;2023-04-10T04:16:12;99266.13;;;5.82;77.45
4167;BME280;2097;51.104;7.150;2023-04-10T04:18:40;99264.59;;;5.75;77.42
4167;BME280;2097;51.104;7.150;2023-04-10T04:21:07;99270.75;;;5.71;77.38
4167;BME280;2097;51.104;7.150;2023-04-10T04:23:34;99251.28;;;5.63;77.50
4167;BME280;2097;51.104;7.150;2023-04-10T04:26:00;99263.03;;;5.70;77.90
4167;BME280;2097;51.104;7.150;2023-04-10T04:28:27;99265.50;;;5.74;77.71
4167;BME280;2097;51.104;7.150;2023-04-10T04:30:54;99264.69;;;5.72;77.25
4167;BME280;2097;51.104;7.150;2023-04-10T04:33:21;99265.59;;;5.71;77.20
4167;BME280;2097;51.104;7.150;2023-04-10T04:35:49;99260.63;;;5.65;77.79
4167;BME280;2097;51.104;7.150;2023-04-10T04:38:16;99258.88;;;5.66;77.26
4167;BME280;2097;51.104;7.150;2023-04-10T04:40:44;99253.84;;;5.63;77.75
4167;BME280;2097;51.104;7.150;2023-04-10T04:43:11;99258.19;;;5.61;78.11
4167;BME280;2097;51.104;7.150;2023-04-10T04:45:38;99250.41;;;5.62;78.16
4167;BME280;2097;51.104;7.150;2023-04-10T04:48:05;99258.84;;;5.67;77.92
4167;BME280;2097;51.104;7.150;2023-04-10T04:50:31;99255.38;;;5.68;77.87
4167;BME280;2097;51.104;7.150;2023-04-10T04:53:00;99257.00;;;5.71;77.40
4167;BME280;2097;51.104;7.150;2023-04-10T04:55:29;99254.53;;;5.68;77.98
4167;BME280;2097;51.104;7.150;2023-04-10T04:57:56;99261.44;;;5.66;77.90
4167;BME280;2097;51.104;7.150;2023-04-10T05:00:23;99254.59;;;5.66;77.22
4167;BME280;2097;51.104;7.150;2023-04-10T05:02:50;99250.13;;;5.71;77.47
4167;BME280;2097;51.104;7.150;2023-04-10T05:05:17;99246.59;;;5.75;77.53
4167;BME280;2097;51.104;7.150;2023-04-10T05:07:43;99248.22;;;5.79;76.96
4167;BME280;2097;51.104;7.150;2023-04-10T05:10:11;99249.75;;;5.83;77.26
4167;BME280;2097;51.104;7.150;2023-04-10T05:12:38;99244.50;;;5.88;76.68
4167;BME280;2097;51.104;7.150;2023-04-10T05:15:06;99249.47;;;5.92;77.56
4167;BME280;2097;51.104;7.150;2023-04-10T05:17:33;99248.56;;;5.95;77.34
4167;BME280;2097;51.104;7.150;2023-04-10T05:20:00;99244.22;;;5.97;77.04
4167;BME280;2097;51.104;7.150;2023-04-10T05:22:27;99250.91;;;6.01;76.75
4167;BME280;2097;51.104;7.150;2023-04-10T05:24:54;99254.94;;;6.09;76.71
4167;BME280;2097;51.104;7.150;2023-04-10T05:27:23;99246.44;;;6.07;76.85
4167;BME280;2097;51.104;7.150;2023-04-10T05:29:50;99257.28;;;6.17;76.99
4167;BME280;2097;51.104;7.150;2023-04-10T05:32:16;99257.28;;;6.17;76.60
4167;BME280;2097;51.104;7.150;2023-04-10T05:34:43;99262.16;;;6.24;76.46
4167;BME280;2097;51.104;7.150;2023-04-10T05:37:10;99255.03;;;6.32;76.37
4167;BME280;2097;51.104;7.150;2023-04-10T05:39:37;99189.16;;;5.99;76.42
4167;BME280;2097;51.104;7.150;2023-04-10T05:42:04;99268.00;;;6.55;76.29
4167;BME280;2097;51.104;7.150;2023-04-10T05:44:32;99259.00;;;6.67;76.17
4167;BME280;2097;51.104;7.150;2023-04-10T05:46:59;99259.41;;;6.79;76.15
4167;BME280;2097;51.104;7.150;2023-04-10T05:49:25;99266.81;;;6.88;75.22
4167;BME280;2097;51.104;7.150;2023-04-10T05:51:52;99208.13;;;6.70;75.31
4167;BME280;2097;51.104;7.150;2023-04-10T05:54:19;99264.44;;;7.06;74.55
4167;BME280;2097;51.104;7.150;2023-04-10T05:56:46;99263.34;;;7.12;74.75
4167;BME280;2097;51.104;7.150;2023-04-10T05:59:12;99267.41;;;7.19;74.70
4167;BME280;2097;51.104;7.150;2023-04-10T06:01:41;99261.94;;;7.26;74.73
4167;BME280;2097;51.104;7.150;2023-04-10T06:04:07;99254.69;;;7.36;74.40
4167;BME280;2097;51.104;7.150;2023-04-10T06:06:34;99254.47;;;7.42;74.96
4167;BME280;2097;51.104;7.150;2023-04-10T06:09:01;99237.53;;;7.35;74.72
4167;BME280;2097;51.104;7.150;2023-04-10T06:11:28;99255.81;;;7.52;74.47
4167;BME280;2097;51.104;7.150;2023-04-10T06:13:55;99259.91;;;7.57;74.53
4167;BME280;2097;51.104;7.150;2023-04-10T06:16:22;99258.69;;;7.66;73.85
4167;BME280;2097;51.104;7.150;2023-04-10T06:18:50;99247.19;;;7.74;73.38
4167;BME280;2097;51.104;7.150;2023-04-10T06:21:18;99251.22;;;7.81;73.50
4167;BME280;2097;51.104;7.150;2023-04-10T06:23:45;99247.66;;;7.84;73.30
4167;BME280;2097;51.104;7.150;2023-04-10T06:26:12;99248.31;;;7.88;73.72
4167;BME280;2097;51.104;7.150;2023-04-10T06:28:39;99247.28;;;7.92;73.78
4167;BME280;2097;51.104;7.150;2023-04-10T06:31:06;99252.16;;;8.00;73.33
4167;BME280;2097;51.104;7.150;2023-04-10T06:33:33;99247.56;;;8.06;73.02
4167;BME280;2097;51.104;7.150;2023-04-10T06:36:03;99241.38;;;8.10;73.07
4167;BME280;2097;51.104;7.150;2023-04-10T06:38:30;99246.34;;;8.16;72.55
4167;BME280;2097;51.104;7.150;2023-04-10T06:41:02;99240.13;;;8.20;72.22
4167;BME280;2097;51.104;7.150;2023-04-10T06:43:29;99243.38;;;8.25;72.61
4167;BME280;2097;51.104;7.150;2023-04-10T06:45:56;99243.00;;;8.34;72.47
4167;BME280;2097;51.104;7.150;2023-04-10T06:48:23;99246.09;;;8.42;72.45
4167;BME280;2097;51.104;7.150;2023-04-10T06:50:50;99246.50;;;8.53;71.99
4167;BME280;2097;51.104;7.150;2023-04-10T06:53:26;99256.19;;;8.68;71.83
4167;BME280;2097;51.104;7.150;2023-04-10T06:55:53;99253.16;;;8.79;71.14
4167;BME280;2097;51.104;7.150;2023-04-10T06:58:19;99262.97;;;8.91;70.74
4167;BME280;2097;51.104;7.150;2023-04-10T07:00:46;99255.56;;;9.02;70.57
4167;BME280;2097;51.104;7.150;2023-04-10T07:03:13;99271.38;;;9.14;69.86
4167;BME280;2097;51.104;7.150;2023-04-10T07:05:40;99261.41;;;9.25;69.82
4167;BME280;2097;51.104;7.150;2023-04-10T07:08:07;99263.59;;;9.34;69.46
4167;BME280;2097;51.104;7.150;2023-04-10T07:10:35;99258.13;;;9.40;69.18
4167;BME280;2097;51.104;7.150;2023-04-10T07:13:02;99257.69;;;9.49;69.14
4167;BME280;2097;51.104;7.150;2023-04-10T07:15:28;99258.91;;;9.60;68.85
4167;BME280;2097;51.104;7.150;2023-04-10T07:17:55;99248.03;;;9.71;68.66
4167;BME280;2097;51.104;7.150;2023-04-10T07:20:22;99254.47;;;9.81;68.46
4167;BME280;2097;51.104;7.150;2023-04-10T07:22:49;99242.66;;;9.92;68.22
4167;BME280;2097;51.104;7.150;2023-04-10T07:25:16;99245.78;;;10.00;68.05
4167;BME280;2097;51.104;7.150;2023-04-10T07:27:44;99234.16;;;10.07;67.37
4167;BME280;2097;51.104;7.150;2023-04-10T07:30:11;99232.81;;;10.17;67.20
4167;BME280;2097;51.104;7.150;2023-04-10T07:32:38;99232.38;;;10.26;66.65
4167;BME280;2097;51.104;7.150;2023-04-10T07:35:07;99226.63;;;10.36;66.08
4167;BME280;2097;51.104;7.150;2023-04-10T07:37:34;99229.47;;;10.49;66.05
4167;BME280;2097;51.104;7.150;2023-04-10T07:40:01;99222.22;;;10.55;65.62
4167;BME280;2097;51.104;7.150;2023-04-10T07:42:28;99226.72;;;10.69;65.06
4167;BME280;2097;51.104;7.150;2023-04-10T07:44:56;99215.91;;;10.76;64.55
4167;BME280;2097;51.104;7.150;2023-04-10T07:47:23;99221.41;;;10.87;64.66
4167;BME280;2097;51.104;7.150;2023-04-10T07:49:50;99223.75;;;10.92;64.37
4167;BME280;2097;51.104;7.150;2023-04-10T07:52:17;99214.38;;;10.89;64.22
4167;BME280;2097;51.104;7.150;2023-04-10T07:54:44;99209.19;;;10.89;64.11
4167;BME280;2097;51.104;7.150;2023-04-10T07:57:10;99204.81;;;10.90;64.02
4167;BME280;2097;51.104;7.150;2023-04-10T07:59:37;99211.84;;;10.88;63.37
4167;BME280;2097;51.104;7.150;2023-04-10T08:02:05;99205.81;;;10.87;63.77
4167;BME280;2097;51.104;7.150;2023-04-10T08:04:32;99205.56;;;10.92;63.69
4167;BME280;2097;51.104;7.150;2023-04-10T08:06:59;99201.97;;;10.94;63.11
4167;BME280;2097;51.104;7.150;2023-04-10T08:09:26;99200.81;;;11.00;63.15
4167;BME280;2097;51.104;7.150;2023-04-10T08:11:53;99184.97;;;11.04;63.16
4167;BME280;2097;51.104;7.150;2023-04-10T08:14:22;99183.66;;;11.13;63.01
4167;BME280;2097;51.104;7.150;2023-04-10T08:16:48;99189.44;;;11.18;62.44
4167;BME280;2097;51.104;7.150;2023-04-10T08:19:17;99181.09;;;11.28;62.27
4167;BME280;2097;51.104;7.150;2023-04-10T08:21:43;99181.41;;;11.37;62.07
4167;BME280;2097;51.104;7.150;2023-04-10T08:24:10;99188.47;;;11.51;61.50
4167;BME280;2097;51.104;7.150;2023-04-10T08:26:37;99189.50;;;11.64;61.14
4167;BME280;2097;51.104;7.150;2023-04-10T08:29:05;99192.31;;;11.75;61.50
4167;BME280;2097;51.104;7.150;2023-04-10T08:31:32;99189.09;;;11.85;60.83
4167;BME280;2097;51.104;7.150;2023-04-10T08:33:59;99185.00;;;11.97;60.54
4167;BME280;2097;51.104;7.150;2023-04-10T08:36:27;99187.91;;;12.06;60.56
4167;BME280;2097;51.104;7.150;2023-04-10T08:38:54;99169.06;;;12.17;59.90
4167;BME280;2097;51.104;7.150;2023-04-10T08:41:20;99174.31;;;12.45;60.41
4167;BME280;2097;51.104;7.150;2023-04-10T08:43:47;99177.16;;;12.55;58.73
4167;BME280;2097;51.104;7.150;2023-04-10T08:46:15;99154.63;;;12.54;58.65
4167;BME280;2097;51.104;7.150;2023-04-10T08:48:45;99171.22;;;12.67;57.74
4167;BME280;2097;51.104;7.150;2023-04-10T08:51:16;99178.00;;;12.70;57.46
4167;BME280;2097;51.104;7.150;2023-04-10T08:53:45;99163.03;;;12.73;56.98
4167;BME280;2097;51.104;7.150;2023-04-10T08:56:15;99160.78;;;12.81;56.44
4167;BME280;2097;51.104;7.150;2023-04-10T08:58:43;99168.97;;;12.89;56.68
4167;BME280;2097;51.104;7.150;2023-04-10T09:01:10;99156.34;;;12.97;56.42
4167;BME280;2097;51.104;7.150;2023-04-10T09:03:37;99151.59;;;13.04;55.77
4167;BME280;2097;51.104;7.150;2023-04-10T09:06:04;99141.28;;;13.02;55.75
4167;BME280;2097;51.104;7.150;2023-04-10T09:08:32;99141.66;;;13.10;55.61
4167;BME280;2097;51.104;7.150;2023-04-10T09:11:00;98975.97;;;12.26;55.30
4167;BME280;2097;51.104;7.150;2023-04-10T09:13:35;99123.47;;;13.23;55.95
4167;BME280;2097;51.104;7.150;2023-04-10T09:16:03;99132.66;;;13.28;55.42
4167;BME280;2097;51.104;7.150;2023-04-10T09:18:41;99122.03;;;13.31;55.21
4167;BME280;2097;51.104;7.150;2023-04-10T09:21:09;99121.56;;;13.39;55.49
4167;BME280;2097;51.104;7.150;2023-04-10T09:23:36;99119.00;;;13.51;54.75
4167;BME280;2097;51.104;7.150;2023-04-10T09:26:21;99108.16;;;13.57;54.12
4167;BME280;2097;51.104;7.150;2023-04-10T09:28:59;99090.22;;;13.53;54.19
4167;BME280;2097;51.104;7.150;2023-04-10T09:31:28;99106.81;;;13.52;54.04
4167;BME280;2097;51.104;7.150;2023-04-10T09:34:06;99091.72;;;13.69;53.61
4167;BME280;2097;51.104;7.150;2023-04-10T09:36:33;99096.16;;;13.81;53.77
4167;BME280;2097;51.104;7.150;2023-04-10T09:39:01;99094.59;;;13.91;53.65
4167;BME280;2097;51.104;7.150;2023-04-10T09:41:29;99096.47;;;13.89;53.52
4167;BME280;2097;51.104;7.150;2023-04-10T09:44:06;99093.44;;;13.95;52.92
4167;BME280;2097;51.104;7.150;2023-04-10T09:46:33;99107.25;;;13.97;53.01
4167;BME280;2097;51.104;7.150;2023-04-10T09:49:00;99107.91;;;14.13;52.26
4167;BME280;2097;51.104;7.150;2023-04-10T09:51:30;99105.41;;;14.24;52.53
4167;BME280;2097;51.104;7.150;2023-04-10T09:53:58;99104.31;;;14.53;52.01
4167;BME280;2097;51.104;7.150;2023-04-10T09:56:28;99089.97;;;14.71;52.11
4167;BME280;2097;51.104;7.150;2023-04-10T09:58:57;99082.22;;;14.82;51.42
4167;BME280;2097;51.104;7.150;2023-04-10T10:01:25;99079.28;;;14.74;50.63
4167;BME280;2097;51.104;7.150;2023-04-10T10:03:53;99080.03;;;14.76;50.77
4167;BME280;2097;51.104;7.150;2023-04-10T10:06:21;99076.13;;;14.81;50.69
4167;BME280;2097;51.104;7.150;2023-04-10T10:08:49;99088.47;;;14.91;50.38
4167;BME280;2097;51.104;7.150;2023-04-10T10:11:18;99084.28;;;14.89;49.31
4167;BME280;2097;51.104;7.150;2023-04-10T10:13:49;99080.53;;;14.81;48.94
4167;BME280;2097;51.104;7.150;2023-04-10T10:16:20;99071.75;;;14.82;48.68
4167;BME280;2097;51.104;7.150;2023-04-10T10:18:53;99066.50;;;14.94;48.84
4167;BME280;2097;51.104;7.150;2023-04-10T10:21:22;99064.06;;;15.03;48.74
4167;BME280;2097;51.104;7.150;2023-04-10T10:23:51;99056.78;;;14.96;47.68
4167;BME280;2097;51.104;7.150;2023-04-10T10:26:19;99060.88;;;14.87;47.53
4167;BME280;2097;51.104;7.150;2023-04-10T10:28:50;99052.75;;;14.80;47.62
4167;BME280;2097;51.104;7.150;2023-04-10T10:31:17;99043.84;;;14.82;47.26
4167;BME280;2097;51.104;7.150;2023-04-10T10:33:44;99034.28;;;14.93;47.22
4167;BME280;2097;51.104;7.150;2023-04-10T10:36:13;99034.06;;;15.09;47.00
4167;BME280;2097;51.104;7.150;2023-04-10T10:38:49;99032.75;;;15.14;46.98
4167;BME280;2097;51.104;7.150;2023-04-10T10:41:23;99021.44;;;15.14;46.39
4167;BME280;2097;51.104;7.150;2023-04-10T10:43:59;99018.03;;;15.13;46.30
4167;BME280;2097;51.104;7.150;2023-04-10T10:46:34;99023.75;;;15.18;46.13
4167;BME280;2097;51.104;7.150;2023-04-10T10:49:03;99012.38;;;15.43;46.38
4167;BME280;2097;51.104;7.150;2023-04-10T10:51:48;99004.41;;;15.79;45.98
4167;BME280;2097;51.104;7.150;2023-04-10T10:54:31;98986.47;;;15.96;45.97
4167;BME280;2097;51.104;7.150;2023-04-10T10:56:58;98982.66;;;16.11;45.78
4167;BME280;2097;51.104;7.150;2023-04-10T10:59:54;98985.16;;;16.23;45.68
4167;BME280;2097;51.104;7.150;2023-04-10T11:02:24;98974.34;;;16.17;45.16
4167;BME280;2097;51.104;7.150;2023-04-10T11:04:51;98967.19;;;16.19;44.77
4167;BME280;2097;51.104;7.150;2023-04-10T11:07:18;98971.97;;;16.14;44.88
4167;BME280;2097;51.104;7.150;2023-04-10T11:09:49;98972.69;;;16.27;44.86
4167;BME280;2097;51.104;7.150;2023-04-10T11:12:20;98960.63;;;16.24;44.18
4167;BME280;2097;51.104;7.150;2023-04-10T11:14:57;98953.91;;;16.33;44.26
4167;BME280;2097;51.104;7.150;2023-04-10T11:17:47;98940.44;;;16.37;43.72
4167;BME280;2097;51.104;7.150;2023-04-10T11:20:14;98935.19;;;16.37;43.95
4167;BME280;2097;51.104;7.150;2023-04-10T11:23:07;98924.22;;;16.54;43.70
4167;BME280;2097;51.104;7.150;2023-04-10T11:25:53;98916.22;;;16.67;43.23
4167;BME280;2097;51.104;7.150;2023-04-10T11:28:38;98918.53;;;16.81;43.31
4167;BME280;2097;51.104;7.150;2023-04-10T11:31:17;98899.69;;;16.87;43.55
4167;BME280;2097;51.104;7.150;2023-04-10T11:33:47;98904.44;;;16.93;43.04
4167;BME280;2097;51.104;7.150;2023-04-10T11:36:14;98899.00;;;16.85;42.78
4167;BME280;2097;51.104;7.150;2023-04-10T11:38:56;98892.78;;;16.86;42.44
4167;BME280;2097;51.104;7.150;2023-04-10T11:41:26;98885.47;;;17.00;42.53
4167;BME280;2097;51.104;7.150;2023-04-10T11:43:55;98890.72;;;17.20;42.74
4167;BME280;2097;51.104;7.150;2023-04-10T11:46:23;98885.31;;;17.33;42.44
4167;BME280;2097;51.104;7.150;2023-04-10T11:48:54;98884.66;;;17.20;41.44
4167;BME280;2097;51.104;7.150;2023-04-10T11:51:21;98875.13;;;16.99;41.08
4167;BME280;2097;51.104;7.150;2023-04-10T11:53:48;98867.25;;;16.99;41.41
4167;BME280;2097;51.104;7.150;2023-04-10T11:56:16;98859.69;;;17.05;41.69
4167;BME280;2097;51.104;7.150;2023-04-10T11:58:43;98869.28;;;17.15;41.52
4167;BME280;2097;51.104;7.150;2023-04-10T12:01:10;98875.00;;;17.20;41.64
4167;BME280;2097;51.104;7.150;2023-04-10T12:03:41;98870.50;;;17.12;40.98
4167;BME280;2097;51.104;7.150;2023-04-10T12:06:10;98872.81;;;17.05;41.05
4167;BME280;2097;51.104;7.150;2023-04-10T12:08:39;98859.38;;;16.99;41.11
4167;BME280;2097;51.104;7.150;2023-04-10T12:11:07;98860.09;;;17.01;41.08
4167;BME280;2097;51.104;7.150;2023-04-10T12:13:34;98863.03;;;17.07;41.45
4167;BME280;2097;51.104;7.150;2023-04-10T12:16:02;98859.84;;;17.04;40.41
4167;BME280;2097;51.104;7.150;2023-04-10T12:18:30;98855.47;;;16.93;40.48
4167;BME280;2097;51.104;7.150;2023-04-10T12:20:59;98853.16;;;16.79;40.14
4167;BME280;2097;51.104;7.150;2023-04-10T12:23:27;98850.13;;;16.84;40.23
4167;BME280;2097;51.104;7.150;2023-04-10T12:26:09;98838.66;;;16.96;40.38
4167;BME280;2097;51.104;7.150;2023-04-10T12:28:36;98837.56;;;16.98;40.34
4167;BME280;2097;51.104;7.150;2023-04-10T12:31:04;98826.91;;;17.11;39.75
4167;BME280;2097;51.104;7.150;2023-04-10T12:33:31;98827.41;;;17.05;40.34
4167;BME280;2097;51.104;7.150;2023-04-10T12:35:59;98823.81;;;17.26;40.49
4167;BME280;2097;51.104;7.150;2023-04-10T12:38:39;98817.78;;;17.55;40.57
4167;BME280;2097;51.104;7.150;2023-04-10T12:41:07;98805.06;;;17.51;39.99
4167;BME280;2097;51.104;7.150;2023-04-10T12:43:37;98804.16;;;17.41;40.14
4167;BME280;2097;51.104;7.150;2023-04-10T12:46:06;98807.81;;;17.49;40.29
4167;BME280;2097;51.104;7.150;2023-04-10T12:48:33;98810.88;;;17.54;40.46
4167;BME280;2097;51.104;7.150;2023-04-10T12:51:02;98811.91;;;17.63;40.26
4167;BME280;2097;51.104;7.150;2023-04-10T12:53:29;98803.06;;;17.64;39.95
4167;BME280;2097;51.104;7.150;2023-04-10T12:56:00;98801.50;;;17.61;39.68
4167;BME280;2097;51.104;7.150;2023-04-10T12:58:28;98806.00;;;17.80;39.64
4167;BME280;2097;51.104;7.150;2023-04-10T13:00:57;98783.25;;;17.90;39.28
4167;BME280;2097;51.104;7.150;2023-04-10T13:03:24;98784.41;;;18.16;39.20
4167;BME280;2097;51.104;7.150;2023-04-10T13:05:51;98791.38;;;18.26;39.23
4167;BME280;2097;51.104;7.150;2023-04-10T13:08:20;98803.41;;;18.29;39.40
4167;BME280;2097;51.104;7.150;2023-04-10T13:10:47;98778.72;;;18.11;39.32
4167;BME280;2097;51.104;7.150;2023-04-10T13:13:15;98781.94;;;18.14;39.09
4167;BME280;2097;51.104;7.150;2023-04-10T13:15:42;98783.72;;;18.14;39.55
4167;BME280;2097;51.104;7.150;2023-04-10T13:18:09;98784.44;;;18.25;39.38
4167;BME280;2097;51.104;7.150;2023-04-10T13:20:37;98749.00;;;18.10;39.50
4167;BME280;2097;51.104;7.150;2023-04-10T13:23:04;98764.97;;;18.28;39.64
4167;BME280;2097;51.104;7.150;2023-04-10T13:25:35;98757.34;;;18.25;39.68
4167;BME280;2097;51.104;7.150;2023-04-10T13:28:04;98760.47;;;18.09;40.03
4167;BME280;2097;51.104;7.150;2023-04-10T13:30:34;98756.88;;;18.01;40.14
4167;BME280;2097;51.104;7.150;2023-04-10T13:33:01;98742.75;;;17.92;40.65
4167;BME280;2097;51.104;7.150;2023-04-10T13:35:28;98737.09;;;17.97;40.59